createdAt,value
2023-04-21T00:00:10.377Z,101381.19
2023-04-21T00:02:40.163Z,101386.66
2023-04-21T00:05:13.930Z,101389.72
2023-04-21T00:07:43.699Z,101384.16
2023-04-21T00:10:12.129Z,101382.06
2023-04-21T00:12:39.911Z,101380.50
2023-04-21T00:15:08.182Z,101385.09
2023-04-21T00:17:35.648Z,101372.13
2023-04-21T00:20:03.179Z,101380.41
2023-04-21T00:22:30.249Z,101374.63
2023-04-21T00:24:57.316Z,101370.56
2023-04-21T00:27:24.334Z,101369.19
2023-04-21T00:29:53.634Z,101369.28
2023-04-21T00:32:20.737Z,101374.81
2023-04-21T00:34:47.787Z,101371.28
2023-04-21T00:37:14.940Z,101372.22
2023-04-21T00:39:42.087Z,101368.78
2023-04-21T00:42:09.184Z,101360.53
2023-04-21T00:44:36.364Z,101360.53
2023-04-21T00:47:03.430Z,101362.66
2023-04-21T00:49:30.740Z,101361.81
2023-04-21T00:51:58.906Z,101365.28
2023-04-21T00:54:26.908Z,101366.31
2023-04-21T00:56:55.521Z,101367.75
2023-04-21T00:59:22.625Z,101359.84
2023-04-21T01:01:50.161Z,101360.97
2023-04-21T01:04:17.255Z,101351.28
2023-04-21T01:06:45.360Z,101367.59
2023-04-21T01:09:14.197Z,101362.66
2023-04-21T01:11:41.311Z,101362.75
2023-04-21T01:14:08.589Z,101365.19
2023-04-21T01:16:36.699Z,101358.19
2023-04-21T01:19:05.706Z,101360.63
2023-04-21T01:21:42.774Z,101360.28
2023-04-21T01:24:10.065Z,101353.63
2023-04-21T01:26:37.130Z,101359.03
2023-04-21T01:29:04.237Z,101352.97
2023-04-21T01:31:31.486Z,101346.56
2023-04-21T01:34:02.937Z,101345.38
2023-04-21T01:36:30.022Z,101347.56
2023-04-21T01:38:57.163Z,101347.28
2023-04-21T01:41:24.270Z,101345.22
2023-04-21T01:43:51.400Z,101343.34
2023-04-21T01:46:21.040Z,101346.91
2023-04-21T01:48:48.160Z,101338.97
2023-04-21T01:51:15.341Z,101338.97
2023-04-21T01:53:42.432Z,101341.91
2023-04-21T01:56:13.142Z,101339.84
2023-04-21T01:58:40.246Z,101336.28
2023-04-21T02:01:07.412Z,101341.34
2023-04-21T02:03:34.906Z,101333.41
2023-04-21T02:06:02.180Z,101331.91
2023-04-21T02:08:29.409Z,101336.78
2023-04-21T02:11:01.647Z,101334.06
2023-04-21T02:13:28.703Z,101331.81
2023-04-21T02:16:09.619Z,101335.34
2023-04-21T02:18:40.146Z,101328.38
2023-04-21T02:21:07.377Z,101335.34
2023-04-21T02:23:34.462Z,101329.31
2023-04-21T02:26:01.669Z,101327.09
2023-04-21T02:28:28.916Z,101333.31
2023-04-21T02:30:56.014Z,101328.66
2023-04-21T02:33:23.240Z,101326.88
2023-04-21T02:35:50.436Z,101328.66
2023-04-21T02:38:17.549Z,101335.53
2023-04-21T02:40:44.602Z,101333.13
2023-04-21T02:43:13.376Z,101332.75
2023-04-21T02:45:40.585Z,101328.56
2023-04-21T02:48:07.776Z,101326.78
2023-04-21T02:50:35.145Z,101326.16
2023-04-21T02:53:02.272Z,101317.78
2023-04-21T02:55:29.669Z,101323.94
2023-04-21T02:57:56.770Z,101323.69
2023-04-21T03:00:23.895Z,101318.75
2023-04-21T03:02:52.270Z,101326.78
2023-04-21T03:05:19.681Z,101324.91
2023-04-21T03:07:46.716Z,101321.09
2023-04-21T03:10:13.934Z,101326.25
2023-04-21T03:12:40.992Z,101316.72
2023-04-21T03:15:08.552Z,101320.44
2023-04-21T03:17:35.767Z,101324.53
2023-04-21T03:20:07.013Z,101318.59
2023-04-21T03:22:38.191Z,101321.94
2023-04-21T03:25:07.237Z,101325.94
2023-04-21T03:27:35.214Z,101323.06
2023-04-21T03:30:02.849Z,101327.09
2023-04-21T03:32:30.016Z,101320.94
2023-04-21T03:34:57.054Z,101324.91
2023-04-21T03:37:24.121Z,101323.25
2023-04-21T03:39:51.146Z,101320.81
2023-04-21T03:42:18.223Z,101323.78
2023-04-21T03:44:45.408Z,101324.91
2023-04-21T03:47:12.586Z,101320.44
2023-04-21T03:49:39.758Z,101316.34
2023-04-21T03:52:06.805Z,101321.56
2023-04-21T03:54:36.777Z,101322.09
2023-04-21T03:57:04.080Z,101320.22
2023-04-21T03:59:31.204Z,101325.16
2023-04-21T04:01:58.259Z,101320.88
2023-04-21T04:04:28.493Z,101330.22
2023-04-21T04:06:55.893Z,101328.34
2023-04-21T04:09:26.088Z,101327.59
2023-04-21T04:11:53.180Z,101334.88
2023-04-21T04:14:20.206Z,101329.94
2023-04-21T04:16:47.296Z,101335.19
2023-04-21T04:19:16.322Z,101335.16
2023-04-21T04:21:43.412Z,101330.31
2023-04-21T04:24:11.411Z,101337.94
2023-04-21T04:26:38.685Z,101333.91
2023-04-21T04:29:10.381Z,101340.47
2023-04-21T04:31:37.826Z,101338.34
2023-04-21T04:34:05.103Z,101335.00
2023-04-21T04:36:33.483Z,101336.78
2023-04-21T04:39:00.546Z,101340.69
2023-04-21T04:41:30.618Z,101342.53
2023-04-21T04:44:00.863Z,101341.78
2023-04-21T04:46:28.461Z,101341.78
2023-04-21T04:48:55.677Z,101342.84
2023-04-21T04:51:23.656Z,101347.31
2023-04-21T04:53:50.851Z,101341.00
2023-04-21T04:56:17.946Z,101338.13
2023-04-21T04:58:46.735Z,101343.16
2023-04-21T05:01:18.081Z,101349.50
2023-04-21T05:03:46.775Z,101342.81
2023-04-21T05:06:14.407Z,101354.31
2023-04-21T05:08:41.704Z,101346.28
2023-04-21T05:11:09.170Z,101343.19
2023-04-21T05:13:39.099Z,101345.56
2023-04-21T05:16:09.908Z,101341.22
2023-04-21T05:18:38.975Z,101355.47
2023-04-21T05:21:06.324Z,101357.59
2023-04-21T05:23:33.473Z,101352.84
2023-04-21T05:26:04.770Z,101353.81
2023-04-21T05:28:32.346Z,101349.84
2023-04-21T05:30:59.966Z,101347.63
2023-04-21T05:33:32.087Z,101347.13
2023-04-21T05:36:02.361Z,101350.78
2023-04-21T05:38:31.476Z,101353.28
2023-04-21T05:40:59.126Z,101349.94
2023-04-21T05:43:38.586Z,101350.13
2023-04-21T05:46:11.967Z,101351.19
2023-04-21T05:48:40.306Z,101351.63
2023-04-21T05:51:17.836Z,101354.22
2023-04-21T05:53:46.309Z,101355.28
2023-04-21T05:56:16.600Z,101353.31
2023-04-21T05:58:43.811Z,101342.78
2023-04-21T06:01:11.284Z,101345.03
2023-04-21T06:03:38.647Z,101344.94
2023-04-21T06:06:07.207Z,101339.28
2023-04-21T06:08:34.404Z,101342.88
2023-04-21T06:11:04.323Z,101336.84
2023-04-21T06:13:39.863Z,101335.44
2023-04-21T06:16:09.122Z,101325.63
2023-04-21T06:18:38.005Z,101333.88
2023-04-21T06:21:07.744Z,101338.03
2023-04-21T06:23:35.283Z,101333.59
2023-04-21T06:26:09.547Z,101325.53
2023-04-21T06:28:39.239Z,101327.31
2023-04-21T06:31:09.938Z,101320.34
2023-04-21T06:33:37.170Z,101316.44
2023-04-21T06:36:05.440Z,101322.75
2023-04-21T06:38:43.125Z,101326.84
2023-04-21T06:41:10.715Z,101321.53
2023-04-21T06:43:42.434Z,101322.19
2023-04-21T06:46:18.241Z,101322.59
2023-04-21T06:48:51.709Z,101321.22
2023-04-21T06:51:18.783Z,101322.47
2023-04-21T06:53:46.086Z,101318.09
2023-04-21T06:56:13.258Z,101313.88
2023-04-21T06:58:40.427Z,101305.69
2023-04-21T07:01:10.938Z,101320.19
2023-04-21T07:03:38.075Z,101313.97
2023-04-21T07:06:05.996Z,101311.47
2023-04-21T07:08:33.324Z,101314.13
2023-04-21T07:11:00.390Z,101308.75
2023-04-21T07:13:28.129Z,101308.66
2023-04-21T07:15:55.660Z,101308.97
2023-04-21T07:18:29.281Z,101305.22
2023-04-21T07:20:56.358Z,101313.25
2023-04-21T07:23:23.527Z,101315.50
2023-04-21T07:25:58.777Z,101317.06
2023-04-21T07:28:26.578Z,101317.84
2023-04-21T07:31:02.324Z,101315.09
2023-04-21T07:33:30.738Z,101311.25
2023-04-21T07:35:58.227Z,101314.69
2023-04-21T07:38:25.657Z,101313.34
2023-04-21T07:40:53.270Z,101315.09
2023-04-21T07:43:20.490Z,101305.81
2023-04-21T07:46:01.375Z,101310.84
2023-04-21T07:48:28.757Z,101312.66
2023-04-21T07:50:56.189Z,101305.59
2023-04-21T07:53:23.372Z,101303.38
2023-04-21T07:55:57.328Z,101297.06
2023-04-21T07:58:24.729Z,101296.94
2023-04-21T08:00:56.619Z,101302.69
2023-04-21T08:03:24.757Z,101297.34
2023-04-21T08:05:52.381Z,101298.91
2023-04-21T08:08:21.554Z,101298.59
2023-04-21T08:10:49.082Z,101307.56
2023-04-21T08:13:16.226Z,101301.28
2023-04-21T08:15:44.702Z,101299.47
2023-04-21T08:18:20.593Z,101303.31
2023-04-21T08:20:49.558Z,101289.03
2023-04-21T08:23:19.846Z,101293.41
2023-04-21T08:25:47.051Z,101296.28
2023-04-21T08:28:15.602Z,101285.13
2023-04-21T08:30:43.317Z,101286.13
2023-04-21T08:33:14.396Z,101293.00
2023-04-21T08:35:55.036Z,101290.25
2023-04-21T08:38:33.725Z,101284.66
2023-04-21T08:41:01.189Z,101280.78
2023-04-21T08:43:30.192Z,101283.97
2023-04-21T08:46:21.663Z,101291.16
2023-04-21T08:49:13.371Z,101276.47
2023-04-21T08:52:00.484Z,101286.34
2023-04-21T08:54:29.898Z,101280.44
2023-04-21T08:57:07.956Z,101285.94
2023-04-21T08:59:41.729Z,101285.00
2023-04-21T09:02:17.463Z,101276.28
2023-04-21T09:04:52.040Z,101279.41
2023-04-21T09:07:39.416Z,101280.59
2023-04-21T09:10:07.955Z,101279.66
2023-04-21T09:12:38.531Z,101283.69
2023-04-21T09:15:06.624Z,101276.47
2023-04-21T09:17:34.099Z,101290.78
2023-04-21T09:20:23.262Z,101280.06
2023-04-21T09:22:54.434Z,101274.34
2023-04-21T09:25:22.692Z,101275.19
2023-04-21T09:27:49.908Z,101275.53
2023-04-21T09:30:22.643Z,101273.22
2023-04-21T09:32:50.255Z,101273.19
2023-04-21T09:35:19.970Z,101272.53
2023-04-21T09:37:47.278Z,101263.34
2023-04-21T09:40:17.732Z,101272.81
2023-04-21T09:42:46.023Z,101265.94
2023-04-21T09:45:32.796Z,101274.34
2023-04-21T09:48:09.545Z,101270.31
2023-04-21T09:53:12.825Z,101256.22
2023-04-21T09:55:41.787Z,101255.13
2023-04-21T09:58:13.401Z,101246.53
2023-04-21T10:00:41.063Z,101258.91
2023-04-21T10:03:12.323Z,101250.38
2023-04-21T10:05:50.639Z,101252.75
2023-04-21T10:08:19.041Z,101251.72
2023-04-21T10:10:55.272Z,101243.59
2023-04-21T10:13:26.245Z,101245.25
2023-04-21T10:16:12.561Z,101247.22
2023-04-21T10:18:47.157Z,101244.25
2023-04-21T10:21:23.488Z,101243.59
2023-04-21T10:24:00.561Z,101237.13
2023-04-21T10:26:41.039Z,101231.56
2023-04-21T10:30:28.679Z,101236.00
2023-04-21T10:33:08.508Z,101238.34
2023-04-21T10:36:08.987Z,101235.28
2023-04-21T10:38:46.490Z,101230.47
2023-04-21T10:41:32.541Z,101229.50
2023-04-21T10:44:00.624Z,101222.78
2023-04-21T10:46:38.540Z,101225.59
2023-04-21T10:49:27.604Z,101219.94
2023-04-21T10:52:07.668Z,101218.38
2023-04-21T10:54:52.716Z,101213.53
2023-04-21T10:57:21.100Z,101220.56
2023-04-21T10:59:54.468Z,101208.72
2023-04-21T11:02:30.596Z,101205.38
2023-04-21T11:04:59.200Z,101207.59
2023-04-21T11:07:27.317Z,101198.47
2023-04-21T11:10:11.558Z,101210.09
2023-04-21T11:12:41.433Z,101197.34
2023-04-21T11:15:15.873Z,101202.44
2023-04-21T11:17:47.187Z,101187.03
2023-04-21T11:20:17.660Z,101191.38
2023-04-21T11:22:53.169Z,101188.91
2023-04-21T11:25:20.526Z,101178.19
2023-04-21T11:27:56.704Z,101182.38
2023-04-21T11:30:42.063Z,101178.31
2023-04-21T11:33:12.552Z,101182.00
2023-04-21T11:35:42.039Z,101178.63
2023-04-21T11:38:10.560Z,101167.00
2023-04-21T11:40:53.921Z,101168.09
2023-04-21T11:43:22.235Z,101168.78
2023-04-21T11:45:53.952Z,101170.91
2023-04-21T11:48:21.317Z,101158.56
2023-04-21T11:50:51.459Z,101154.88
2023-04-21T11:53:20.396Z,101158.66
2023-04-21T11:56:03.604Z,101149.78
2023-04-21T11:58:40.577Z,101145.81
2023-04-21T12:01:11.187Z,101145.97
2023-04-21T12:04:17.470Z,101141.53
2023-04-21T12:06:46.909Z,101143.25
2023-04-21T12:09:25.033Z,101138.53
2023-04-21T12:11:55.192Z,101136.59
2023-04-21T12:14:24.493Z,101142.47
2023-04-21T12:16:57.307Z,101133.41
2023-04-21T12:19:43.032Z,101131.78
2023-04-21T12:22:17.215Z,101131.28
2023-04-21T12:24:45.345Z,101133.06
2023-04-21T12:27:16.709Z,101130.78
2023-04-21T12:29:49.269Z,101128.22
2023-04-21T12:32:32.322Z,101125.31
2023-04-21T12:35:00.545Z,101115.81
2023-04-21T12:37:27.893Z,101125.03
2023-04-21T12:39:57.519Z,101114.00
2023-04-21T12:42:25.644Z,101121.53
2023-04-21T12:45:27.029Z,101114.66
2023-04-21T12:48:00.471Z,101114.44
2023-04-21T12:50:27.647Z,101112.00
2023-04-21T12:52:55.407Z,101111.94
2023-04-21T12:55:23.452Z,101103.41
2023-04-21T12:57:54.090Z,101108.72
2023-04-21T13:00:24.797Z,101095.03
2023-04-21T13:02:52.089Z,101089.97
2023-04-21T13:05:20.184Z,101090.34
2023-04-21T13:07:47.384Z,101096.50
2023-04-21T13:10:18.217Z,101097.81
2023-04-21T13:12:46.924Z,101087.09
2023-04-21T13:15:14.036Z,101088.06
2023-04-21T13:17:41.416Z,101083.19
2023-04-21T13:20:09.210Z,101071.94
2023-04-21T13:22:40.284Z,101075.84
2023-04-21T13:25:10.531Z,101079.69
2023-04-21T13:27:42.422Z,101073.97
2023-04-21T13:30:12.915Z,101068.13
2023-04-21T13:32:46.686Z,101059.31
2023-04-21T13:35:15.012Z,101070.22
2023-04-21T13:37:42.503Z,101057.84
2023-04-21T13:40:11.575Z,101048.88
2023-04-21T13:42:39.841Z,101044.13
2023-04-21T13:45:08.162Z,101051.13
2023-04-21T13:47:35.866Z,101047.97
2023-04-21T13:50:03.577Z,101051.03
2023-04-21T13:52:30.846Z,101039.53
2023-04-21T13:54:58.252Z,101031.63
2023-04-21T13:57:25.547Z,101033.34
2023-04-21T14:00:02.042Z,101031.59
2023-04-21T14:02:29.484Z,101019.56
2023-04-21T14:04:59.841Z,101023.00
2023-04-21T14:07:30.587Z,101014.56
2023-04-21T14:09:58.114Z,101019.31
2023-04-21T14:12:28.132Z,101017.44
2023-04-21T14:14:55.378Z,101002.81
2023-04-21T14:17:23.200Z,101007.91
2023-04-21T14:19:52.025Z,101010.19
2023-04-21T14:22:21.022Z,101006.97
2023-04-21T14:24:49.928Z,100998.06
2023-04-21T14:27:19.803Z,100991.41
2023-04-21T14:29:47.047Z,101007.34
2023-04-21T14:32:19.324Z,100987.03
2023-04-21T14:34:47.186Z,100998.41
2023-04-21T14:37:14.403Z,100987.88
2023-04-21T14:39:41.698Z,100983.56
2023-04-21T14:42:11.323Z,100971.31
2023-04-21T14:44:38.654Z,100971.50
2023-04-21T14:47:09.699Z,100956.31
2023-04-21T14:49:40.632Z,100974.19
2023-04-21T14:52:08.069Z,100967.66
2023-04-21T14:54:41.481Z,100975.19
2023-04-21T14:57:20.061Z,100972.00
2023-04-21T14:59:56.003Z,100970.13
2023-04-21T15:02:24.130Z,100963.34
2023-04-21T15:04:53.026Z,100958.88
2023-04-21T15:07:24.717Z,100965.06
2023-04-21T15:09:54.485Z,100949.69
2023-04-21T15:12:23.181Z,100949.22
2023-04-21T15:14:59.960Z,100948.94
2023-04-21T15:17:32.722Z,100942.06
2023-04-21T15:20:05.575Z,100942.47
2023-04-21T15:22:38.829Z,100944.44
2023-04-21T15:25:16.396Z,100939.75
2023-04-21T15:27:47.062Z,100937.44
2023-04-21T15:30:17.614Z,100931.78
2023-04-21T15:32:58.360Z,100933.84
2023-04-21T15:35:26.147Z,100924.88
2023-04-21T15:38:02.721Z,100929.63
2023-04-21T15:40:53.065Z,100927.84
2023-04-21T15:43:26.971Z,100918.34
2023-04-21T15:46:17.015Z,100916.75
2023-04-21T15:48:52.582Z,100923.75
2023-04-21T15:51:57.399Z,100911.56
2023-04-21T15:54:35.328Z,100908.88
2023-04-21T15:57:03.159Z,100900.50
2023-04-21T15:59:31.033Z,100903.13
2023-04-21T16:01:58.664Z,100905.63
2023-04-21T16:04:26.642Z,100902.44
2023-04-21T16:06:54.610Z,100902.94
2023-04-21T16:09:23.964Z,100903.88
2023-04-21T16:11:51.812Z,100905.84
2023-04-21T16:14:19.322Z,100897.69
2023-04-21T16:16:46.721Z,100889.91
2023-04-21T16:19:14.014Z,100890.50
2023-04-21T16:21:42.683Z,100888.63
2023-04-21T16:24:20.678Z,100887.97
2023-04-21T16:26:59.937Z,100885.75
2023-04-21T16:29:27.045Z,100883.34
2023-04-21T16:31:54.313Z,100882.09
2023-04-21T16:34:24.545Z,100878.28
2023-04-21T16:36:51.657Z,100879.25
2023-04-21T16:39:18.949Z,100872.34
2023-04-21T16:41:46.279Z,100871.81
2023-04-21T16:44:13.464Z,100872.44
2023-04-21T16:46:41.093Z,100864.88
2023-04-21T16:49:12.768Z,100862.13
2023-04-21T16:51:44.484Z,100864.16
2023-04-21T16:54:12.374Z,100866.09
2023-04-21T16:56:39.682Z,100870.97
2023-04-21T16:59:06.845Z,100858.31
2023-04-21T17:01:33.914Z,100863.91
2023-04-21T17:04:01.794Z,100853.66
2023-04-21T17:06:29.026Z,100862.31
2023-04-21T17:08:59.851Z,100858.75
2023-04-21T17:11:31.578Z,100855.19
2023-04-21T17:13:58.696Z,100854.59
2023-04-21T17:16:28.171Z,100859.28
2023-04-21T17:18:56.381Z,100866.13
2023-04-21T17:21:23.622Z,100854.38
2023-04-21T17:23:56.589Z,100856.91
2023-04-21T17:26:23.959Z,100862.19
2023-04-21T17:28:54.178Z,100859.69
2023-04-21T17:31:21.447Z,100855.56
2023-04-21T17:33:50.993Z,100867.34
2023-04-21T17:36:19.023Z,100867.03
2023-04-21T17:38:46.390Z,100864.16
2023-04-21T17:41:14.754Z,100859.56
2023-04-21T17:43:41.822Z,100851.44
2023-04-21T17:46:08.996Z,100853.22
2023-04-21T17:48:36.136Z,100862.06
2023-04-21T17:51:04.044Z,100852.53
2023-04-21T17:53:31.962Z,100856.63
2023-04-21T17:55:59.561Z,100863.00
2023-04-21T17:58:28.078Z,100867.47
2023-04-21T18:00:55.476Z,100851.16
2023-04-21T18:03:23.000Z,100852.91
2023-04-21T18:05:50.532Z,100856.34
2023-04-21T18:08:17.916Z,100860.25
2023-04-21T18:10:44.994Z,100859.69
2023-04-21T18:13:12.050Z,100864.44
2023-04-21T18:15:43.562Z,100860.06
2023-04-21T18:18:10.694Z,100864.88
2023-04-21T18:20:38.006Z,100863.16
2023-04-21T18:23:07.362Z,100865.56
2023-04-21T18:25:42.450Z,100861.56
2023-04-21T18:28:13.398Z,100857.19
2023-04-21T18:30:40.885Z,100861.84
2023-04-21T18:33:12.473Z,100864.34
2023-04-21T18:35:42.530Z,100867.72
2023-04-21T18:38:11.731Z,100862.69
2023-04-21T18:40:40.464Z,100861.94
2023-04-21T18:43:08.069Z,100862.34
2023-04-21T18:45:35.432Z,100870.16
2023-04-21T18:48:02.553Z,100872.22
2023-04-21T18:50:34.690Z,100865.97
2023-04-21T18:53:03.759Z,100874.75
2023-04-21T18:55:33.340Z,100869.19
2023-04-21T18:58:00.400Z,100867.13
2023-04-21T19:00:37.160Z,100863.53
2023-04-21T19:03:08.356Z,100861.31
2023-04-21T19:05:40.434Z,100862.50
2023-04-21T19:08:11.641Z,100851.69
2023-04-21T19:10:38.834Z,100856.66
2023-04-21T19:13:06.175Z,100859.66
2023-04-21T19:15:34.328Z,100860.63
2023-04-21T19:18:01.550Z,100867.13
2023-04-21T19:20:32.402Z,100862.16
2023-04-21T19:22:59.590Z,100866.47
2023-04-21T19:25:26.716Z,100864.69
2023-04-21T19:27:53.984Z,100862.16
2023-04-21T19:30:21.740Z,100859.44
2023-04-21T19:32:48.910Z,100864.97
2023-04-21T19:35:16.443Z,100871.22
2023-04-21T19:37:44.067Z,100860.69
2023-04-21T19:40:11.588Z,100864.28
2023-04-21T19:42:41.501Z,100862.19
2023-04-21T19:45:09.982Z,100855.16
2023-04-21T19:47:37.281Z,100861.81
2023-04-21T19:50:09.035Z,100858.38
2023-04-21T19:52:36.337Z,100860.84
2023-04-21T19:55:06.909Z,100857.84
2023-04-21T19:57:38.793Z,100863.38
2023-04-21T20:00:09.291Z,100858.34
2023-04-21T20:02:36.699Z,100858.22
2023-04-21T20:05:04.451Z,100858.84
2023-04-21T20:07:31.545Z,100865.56
2023-04-21T20:10:01.483Z,100857.88
2023-04-21T20:12:31.982Z,100865.03
2023-04-21T20:14:59.173Z,100861.31
2023-04-21T20:17:26.764Z,100856.00
2023-04-21T20:19:55.568Z,100854.78
2023-04-21T20:22:22.801Z,100861.00
2023-04-21T20:24:52.090Z,100863.50
2023-04-21T20:27:19.509Z,100861.97
2023-04-21T20:29:47.517Z,100863.66
2023-04-21T20:32:19.425Z,100859.31
2023-04-21T20:34:46.471Z,100865.84
2023-04-21T20:37:16.322Z,100871.25
2023-04-21T20:39:46.662Z,100866.91
2023-04-21T20:42:14.611Z,100870.13
2023-04-21T20:44:43.153Z,100865.19
2023-04-21T20:47:11.926Z,100871.91
2023-04-21T20:49:40.126Z,100869.22
2023-04-21T20:52:10.673Z,100872.63
2023-04-21T20:54:38.172Z,100870.53
2023-04-21T20:57:10.134Z,100869.56
2023-04-21T20:59:37.596Z,100871.50
2023-04-21T21:02:05.222Z,100877.53
2023-04-21T21:04:32.634Z,100867.47
2023-04-21T21:07:01.288Z,100875.66
2023-04-21T21:09:28.488Z,100870.50
2023-04-21T21:11:56.032Z,100869.25
2023-04-21T21:14:26.515Z,100864.47
2023-04-21T21:16:54.684Z,100863.25
2023-04-21T21:19:21.824Z,100870.88
2023-04-21T21:21:48.872Z,100867.38
2023-04-21T21:24:16.253Z,100869.94
2023-04-21T21:26:43.357Z,100871.91
2023-04-21T21:29:10.563Z,100874.19
2023-04-21T21:31:37.698Z,100868.28
2023-04-21T21:34:04.890Z,100866.50
2023-04-21T21:36:33.246Z,100875.63
2023-04-21T21:39:00.296Z,100869.41
2023-04-21T21:41:27.461Z,100872.97
2023-04-21T21:43:54.493Z,100876.78
2023-04-21T21:46:22.199Z,100876.06
2023-04-21T21:48:50.110Z,100876.75
2023-04-21T21:51:17.263Z,100879.69
2023-04-21T21:53:44.319Z,100884.59
2023-04-21T21:56:11.709Z,100877.56
2023-04-21T21:58:38.882Z,100880.34
2023-04-21T22:01:06.147Z,100880.31
2023-04-21T22:03:33.433Z,100871.56
2023-04-21T22:06:00.683Z,100881.09
2023-04-21T22:08:27.693Z,100883.22
2023-04-21T22:10:55.552Z,100876.72
2023-04-21T22:13:22.819Z,100882.28
2023-04-21T22:15:49.917Z,100885.22
2023-04-21T22:18:18.555Z,100881.91
2023-04-21T22:20:45.681Z,100882.19
2023-04-21T22:23:13.000Z,100886.44
2023-04-21T22:25:40.151Z,100884.25
2023-04-21T22:28:07.184Z,100882.03
2023-04-21T22:30:34.379Z,100880.53
2023-04-21T22:33:01.638Z,100878.13
2023-04-21T22:35:29.952Z,100879.34
2023-04-21T22:37:57.058Z,100886.84
2023-04-21T22:40:24.180Z,100885.56
2023-04-21T22:42:51.400Z,100884.16
2023-04-21T22:45:18.571Z,100884.97
2023-04-21T22:47:45.629Z,100892.31
2023-04-21T22:50:15.217Z,100898.16
2023-04-21T22:52:42.444Z,100894.81
2023-04-21T22:55:10.287Z,100892.88
2023-04-21T22:57:37.851Z,100896.22
2023-04-21T23:00:11.199Z,100890.38
2023-04-21T23:02:38.632Z,100897.16
2023-04-21T23:05:06.704Z,100897.28
2023-04-21T23:07:33.810Z,100895.50
2023-04-21T23:10:00.879Z,100896.94
2023-04-21T23:12:27.956Z,100894.56
2023-04-21T23:14:55.043Z,100895.13
2023-04-21T23:17:22.196Z,100894.94
2023-04-21T23:19:49.293Z,100902.53
2023-04-21T23:22:18.608Z,100898.13
2023-04-21T23:24:45.752Z,100901.06
2023-04-21T23:27:12.829Z,100892.53
2023-04-21T23:29:40.113Z,100890.75
2023-04-21T23:32:07.569Z,100896.09
2023-04-21T23:34:34.748Z,100892.53
2023-04-21T23:37:01.775Z,100884.78
2023-04-21T23:39:28.874Z,100887.84
2023-04-21T23:41:56.110Z,100893.63
2023-04-21T23:44:23.197Z,100892.91
2023-04-21T23:46:50.274Z,100891.34
2023-04-21T23:49:17.314Z,100885.50
2023-04-21T23:51:44.459Z,100882.41
2023-04-21T23:54:11.631Z,100886.91
2023-04-21T23:56:38.670Z,100881.34
2023-04-21T23:59:06.372Z,100879.19
